Time;durP1;ratioP1;P1;durP2;ratioP2;P2;SDS_P1;SDS_P2;PMS_P1;PMS_P2;Temp;Humidity;BMP_temperature;BMP_pressure;BME280_temperature;BME280_humidity;BME280_pressure;Samples;Min_cycle;Max_cycle;Signal;HPM_P1;HPM_P2
2022/06/20 00:00:04;;;;;;;;;;;13.90;97.60;;;;;;5017024;28;19937;-72
2022/06/20 00:02:31;;;;;;;;;;;13.90;97.60;;;;;;5034900;28;20346;-73
2022/06/20 00:04:57;;;;;;;;;;;13.90;97.60;;;;;;5034705;28;19918;-72
2022/06/20 00:07:24;;;;;;;;;;;13.90;97.60;;;;;;5017085;28;19921;-72
2022/06/20 00:09:50;;;;;;;;;;;14.00;97.60;;;;;;5034692;28;19963;-72
2022/06/20 00:12:23;;;;;;;;;;;14.00;97.60;;;;;;5034700;28;19917;-72
2022/06/20 00:14:54;;;;;;;;;;;14.00;97.70;;;;;;5016948;28;19963;-72
2022/06/20 00:17:20;;;;;;;;;;;14.00;97.70;;;;;;5034607;28;19913;-72
2022/06/20 00:19:47;;;;;;;;;;;14.00;97.70;;;;;;5034427;28;19917;-72
2022/06/20 00:22:14;;;;;;;;;;;14.00;97.70;;;;;;5015164;28;20379;-72
2022/06/20 00:24:40;;;;;;;;;;;14.00;97.70;;;;;;5034675;28;19955;-72
2022/06/20 00:27:07;;;;;;;;;;;14.10;97.70;;;;;;5034592;28;19916;-72
2022/06/20 00:29:34;;;;;;;;;;;14.10;97.70;;;;;;5033721;28;19916;-72
2022/06/20 00:32:00;;;;;;;;;;;14.20;97.70;;;;;;5016401;28;19918;-72
2022/06/20 00:34:27;;;;;;;;;;;14.20;97.70;;;;;;5034667;28;20252;-72
2022/06/20 00:36:54;;;;;;;;;;;14.20;97.70;;;;;;5034133;28;19924;-72
2022/06/20 00:39:20;;;;;;;;;;;14.20;97.70;;;;;;5033708;28;19935;-72
2022/06/20 00:41:47;;;;;;;;;;;14.20;97.70;;;;;;5016462;28;20291;-72
2022/06/20 00:44:14;;;;;;;;;;;14.30;97.70;;;;;;5015952;28;19913;-72
2022/06/20 00:46:47;;;;;;;;;;;14.30;97.70;;;;;;5033697;28;20287;-72
2022/06/20 00:49:20;;;;;;;;;;;14.40;97.70;;;;;;5033682;28;19955;-72
2022/06/20 00:51:49;;;;;;;;;;;14.40;97.70;;;;;;5033492;28;19917;-72
2022/06/20 00:54:22;;;;;;;;;;;14.50;97.80;;;;;;5033725;28;19955;-72
2022/06/20 00:56:59;;;;;;;;;;;14.60;97.80;;;;;;5033721;28;19909;-72
2022/06/20 00:59:27;;;;;;;;;;;14.60;97.80;;;;;;5026330;28;20363;-72
2022/06/20 01:01:54;;;;;;;;;;;14.60;97.70;;;;;;5015653;28;20009;-72
2022/06/20 01:04:32;;;;;;;;;;;14.60;97.70;;;;;;5024603;28;19916;-72
2022/06/20 01:06:58;;;;;;;;;;;14.70;97.70;;;;;;5015764;28;19909;-72
2022/06/20 01:09:26;;;;;;;;;;;14.70;97.50;;;;;;5009544;28;19910;-72
2022/06/20 01:11:54;;;;;;;;;;;14.70;97.30;;;;;;5031220;28;19979;-72
2022/06/20 01:14:26;;;;;;;;;;;14.70;97.20;;;;;;5016202;28;19909;-72
2022/06/20 01:16:54;;;;;;;;;;;14.70;97.10;;;;;;5033748;28;20430;-72
2022/06/20 01:19:35;;;;;;;;;;;14.70;96.80;;;;;;5033672;28;20267;-72
2022/06/20 01:22:02;;;;;;;;;;;14.80;96.90;;;;;;5015314;28;19913;-72
2022/06/20 01:24:32;;;;;;;;;;;14.70;96.30;;;;;;5015500;28;19936;-72
2022/06/20 01:27:17;;;;;;;;;;;14.80;96.20;;;;;;5033023;28;19909;-72
2022/06/20 01:29:43;;;;;;;;;;;14.90;96.50;;;;;;5033812;28;19921;-72
2022/06/20 01:32:10;;;;;;;;;;;14.90;95.90;;;;;;5015451;28;19956;-72
2022/06/20 01:34:37;;;;;;;;;;;14.90;95.70;;;;;;5015401;28;19913;-72
2022/06/20 01:39:49;;;;;;;;;;;14.90;95.10;;;;;;5017245;28;19965;-72
2022/06/20 01:42:18;;;;;;;;;;;14.90;94.40;;;;;;5032691;28;19917;-72
2022/06/20 01:44:54;;;;;;;;;;;14.90;94.70;;;;;;5015430;28;19916;-72
2022/06/20 01:47:21;;;;;;;;;;;14.90;93.80;;;;;;5015380;28;19909;-72
2022/06/20 01:49:48;;;;;;;;;;;14.90;93.00;;;;;;5032837;28;20294;-72
2022/06/20 01:52:19;;;;;;;;;;;15.00;92.50;;;;;;5032866;28;20023;-72
2022/06/20 01:54:57;;;;;;;;;;;15.00;92.80;;;;;;5015386;28;19909;-72
2022/06/20 01:57:23;;;;;;;;;;;15.00;91.40;;;;;;5011813;28;20354;-72
2022/06/20 01:59:57;;;;;;;;;;;15.00;91.80;;;;;;5010571;28;19920;-72
2022/06/20 02:02:24;;;;;;;;;;;15.00;92.10;;;;;;5032361;28;19916;-72
2022/06/20 02:04:51;;;;;;;;;;;15.00;89.30;;;;;;5032572;28;19936;-72
2022/06/20 02:07:18;;;;;;;;;;;15.00;89.60;;;;;;5014844;28;19910;-72
2022/06/20 02:09:46;;;;;;;;;;;15.10;90.40;;;;;;5031791;28;19917;-72
2022/06/20 02:12:12;;;;;;;;;;;15.10;88.80;;;;;;5031274;28;19979;-72
2022/06/20 02:14:49;;;;;;;;;;;15.10;89.60;;;;;;5032496;28;19917;-72
2022/06/20 02:17:19;;;;;;;;;;;15.10;88.20;;;;;;4998666;28;20369;-72
2022/06/20 02:19:47;;;;;;;;;;;15.10;88.80;;;;;;5010255;28;19920;-71
2022/06/20 02:22:13;;;;;;;;;;;15.10;89.60;;;;;;5009047;28;19920;-71
2022/06/20 02:24:41;;;;;;;;;;;15.10;89.00;;;;;;5014747;28;19913;-71
2022/06/20 02:27:10;;;;;;;;;;;15.20;89.00;;;;;;5014119;28;19916;-71
2022/06/20 02:29:36;;;;;;;;;;;15.20;89.20;;;;;;5032123;28;19905;-71
2022/06/20 02:32:06;;;;;;;;;;;15.20;89.00;;;;;;5014608;28;19970;-71
2022/06/20 02:34:33;;;;;;;;;;;15.20;88.50;;;;;;5029761;28;19913;-71
2022/06/20 02:37:03;;;;;;;;;;;15.20;88.80;;;;;;5014408;28;19909;-71
2022/06/20 02:39:30;;;;;;;;;;;15.20;89.00;;;;;;5010770;28;20359;-71
2022/06/20 02:41:59;;;;;;;;;;;15.20;89.20;;;;;;5014616;28;20275;-71
2022/06/20 02:44:25;;;;;;;;;;;15.20;89.90;;;;;;5008661;28;20007;-72
2022/06/20 02:46:52;;;;;;;;;;;15.20;89.80;;;;;;5030511;28;19917;-72
2022/06/20 02:49:19;;;;;;;;;;;15.20;90.00;;;;;;5014090;28;19966;-72
2022/06/20 02:51:51;;;;;;;;;;;15.20;90.50;;;;;;5013922;28;19931;-72
2022/06/20 02:54:18;;;;;;;;;;;15.10;90.50;;;;;;5011248;28;20024;-72
2022/06/20 02:56:54;;;;;;;;;;;15.10;90.80;;;;;;5012289;28;20007;-72
2022/06/20 02:59:22;;;;;;;;;;;15.10;90.80;;;;;;5014936;28;19920;-72
2022/06/20 03:01:53;;;;;;;;;;;15.10;90.80;;;;;;5013754;28;20036;-72
2022/06/20 03:04:20;;;;;;;;;;;15.10;91.00;;;;;;5015221;28;20016;-72
2022/06/20 03:06:48;;;;;;;;;;;15.10;91.20;;;;;;5031288;28;20006;-72
2022/06/20 03:09:15;;;;;;;;;;;15.10;91.30;;;;;;5031767;28;20003;-72
2022/06/20 03:11:42;;;;;;;;;;;15.10;91.60;;;;;;5014319;28;19921;-72
2022/06/20 03:14:11;;;;;;;;;;;15.10;91.00;;;;;;5014058;28;20371;-73
2022/06/20 03:16:40;;;;;;;;;;;15.10;90.70;;;;;;5014102;28;20367;-73
2022/06/20 03:19:09;;;;;;;;;;;15.10;91.20;;;;;;4997420;28;19913;-73
2022/06/20 03:21:37;;;;;;;;;;;15.20;91.20;;;;;;5013307;28;19998;-72
2022/06/20 03:24:03;;;;;;;;;;;15.20;91.00;;;;;;5013605;28;19913;-73
2022/06/20 03:26:30;;;;;;;;;;;15.20;90.30;;;;;;5013285;28;19914;-72
2022/06/20 03:28:57;;;;;;;;;;;15.20;90.70;;;;;;5031233;28;19920;-72
2022/06/20 03:31:23;;;;;;;;;;;15.20;90.70;;;;;;5031805;28;19957;-72
2022/06/20 03:33:50;;;;;;;;;;;15.20;90.70;;;;;;5031178;28;19913;-72
2022/06/20 03:36:23;;;;;;;;;;;15.20;91.00;;;;;;5032254;28;19936;-72
2022/06/20 03:38:49;;;;;;;;;;;15.30;91.00;;;;;;5014416;28;19979;-72
2022/06/20 03:41:17;;;;;;;;;;;15.20;89.30;;;;;;5014051;28;19944;-72
2022/06/20 03:43:47;;;;;;;;;;;15.30;89.80;;;;;;5014447;28;20351;-72
2022/06/20 04:41:24;;;;;;;;;;;15.60;87.30;;;;;;5066085;28;19966;-72
2022/06/20 04:43:58;;;;;;;;;;;15.60;88.00;;;;;;5026630;28;19917;-70
2022/06/20 04:46:38;;;;;;;;;;;15.60;87.60;;;;;;5007955;28;19913;-71
2022/06/20 04:49:08;;;;;;;;;;;15.60;86.90;;;;;;5016310;28;19917;-71
2022/06/20 04:51:37;;;;;;;;;;;15.60;87.20;;;;;;5005911;28;19923;-70
2022/06/20 04:54:04;;;;;;;;;;;15.50;87.00;;;;;;5030313;28;20386;-71
2022/06/20 04:56:31;;;;;;;;;;;15.50;86.90;;;;;;5030006;28;20260;-70
2022/06/20 04:58:58;;;;;;;;;;;15.50;86.50;;;;;;5031698;28;19936;-72
2022/06/20 05:01:25;;;;;;;;;;;15.60;87.30;;;;;;5008203;28;19914;-71
2022/06/20 05:03:57;;;;;;;;;;;15.50;86.60;;;;;;5005912;28;20288;-71
2022/06/20 05:06:25;;;;;;;;;;;15.50;87.40;;;;;;5022048;28;19913;-71
2022/06/20 05:09:00;;;;;;;;;;;15.50;87.80;;;;;;5030501;28;19918;-70
2022/06/20 05:11:47;;;;;;;;;;;15.50;87.40;;;;;;5031474;28;20335;-71
2022/06/20 05:14:46;;;;;;;;;;;15.50;86.80;;;;;;5024216;28;19921;-70
2022/06/20 05:17:14;;;;;;;;;;;15.50;87.10;;;;;;4967101;28;20272;-70
2022/06/20 05:19:44;;;;;;;;;;;15.50;86.90;;;;;;5032952;28;19985;-70
2022/06/20 05:22:12;;;;;;;;;;;15.50;86.90;;;;;;5010464;28;20442;-70
2022/06/20 05:24:39;;;;;;;;;;;15.50;86.80;;;;;;5029754;28;19948;-71
2022/06/20 05:27:14;;;;;;;;;;;15.50;85.90;;;;;;5025558;28;20002;-71
2022/06/20 05:29:41;;;;;;;;;;;15.50;85.10;;;;;;5032657;28;19912;-70
2022/06/20 05:32:08;;;;;;;;;;;15.50;84.70;;;;;;5050599;28;20271;-70
2022/06/20 05:34:52;;;;;;;;;;;15.50;84.10;;;;;;5032617;28;20391;-70
2022/06/20 05:37:25;;;;;;;;;;;15.50;84.50;;;;;;5040514;28;19917;-70
2022/06/20 05:39:54;;;;;;;;;;;15.50;84.60;;;;;;5029300;28;20019;-71
2022/06/20 05:42:20;;;;;;;;;;;15.50;83.70;;;;;;5030216;28;20026;-71
2022/06/20 05:44:47;;;;;;;;;;;15.50;84.60;;;;;;5028274;28;19923;-70
2022/06/20 05:47:17;;;;;;;;;;;15.50;84.70;;;;;;5050237;28;19920;-70
2022/06/20 05:49:55;;;;;;;;;;;15.50;83.40;;;;;;5049131;28;19913;-70
2022/06/20 05:52:24;;;;;;;;;;;15.50;83.50;;;;;;5033624;28;20403;-70
2022/06/20 05:54:56;;;;;;;;;;;15.50;84.20;;;;;;5019057;28;20379;-73
2022/06/20 05:57:22;;;;;;;;;;;15.50;84.00;;;;;;5024758;28;20353;-69
2022/06/20 05:59:49;;;;;;;;;;;15.50;84.00;;;;;;5044501;28;19909;-69
2022/06/20 06:02:34;;;;;;;;;;;15.50;83.40;;;;;;5047291;28;19913;-71
2022/06/20 06:05:13;;;;;;;;;;;15.50;83.60;;;;;;5023828;28;20366;-72
2022/06/20 06:07:53;;;;;;;;;;;15.50;83.50;;;;;;5040266;28;20012;-72
2022/06/20 06:10:25;;;;;;;;;;;15.50;83.80;;;;;;5049987;28;19916;-72
2022/06/20 06:12:53;;;;;;;;;;;15.50;84.30;;;;;;5045445;28;19925;-72
2022/06/20 06:15:29;;;;;;;;;;;15.50;84.70;;;;;;5029318;28;20375;-73
2022/06/20 06:17:59;;;;;;;;;;;15.50;84.50;;;;;;5023943;28;19967;-72
2022/06/20 06:20:27;;;;;;;;;;;15.50;84.50;;;;;;5010453;28;20299;-72
2022/06/20 06:22:54;;;;;;;;;;;15.50;84.10;;;;;;5044865;28;19913;-72
2022/06/20 06:25:21;;;;;;;;;;;15.50;83.60;;;;;;5032586;28;19919;-72
2022/06/20 06:27:47;;;;;;;;;;;15.50;82.80;;;;;;5048918;28;19913;-72
2022/06/20 06:30:18;;;;;;;;;;;15.50;83.40;;;;;;5048786;28;20028;-71
2022/06/20 06:33:20;;;;;;;;;;;15.50;84.20;;;;;;5044512;28;19931;-71
2022/06/20 06:35:58;;;;;;;;;;;15.50;83.60;;;;;;4967599;28;19972;-70
2022/06/20 06:38:27;;;;;;;;;;;15.50;84.10;;;;;;5022066;28;19984;-71
2022/06/20 06:40:54;;;;;;;;;;;15.50;84.60;;;;;;5028366;28;19917;-71
2022/06/20 06:43:23;;;;;;;;;;;15.50;84.70;;;;;;5015028;28;19929;-70
2022/06/20 06:45:50;;;;;;;;;;;15.50;84.60;;;;;;5026089;28;19914;-72
2022/06/20 06:48:25;;;;;;;;;;;15.50;84.20;;;;;;5046136;28;19951;-71
2022/06/20 06:50:55;;;;;;;;;;;15.50;84.40;;;;;;5049593;28;20391;-72
2022/06/20 06:53:22;;;;;;;;;;;15.50;83.40;;;;;;5027654;28;20298;-71
2022/06/20 06:55:52;;;;;;;;;;;15.50;83.50;;;;;;5025451;28;19962;-71
2022/06/20 06:58:48;;;;;;;;;;;15.50;83.90;;;;;;5022126;28;19924;-71
2022/06/20 07:01:17;;;;;;;;;;;15.40;84.10;;;;;;4962582;28;19980;-71
2022/06/20 07:03:58;;;;;;;;;;;15.40;84.30;;;;;;5033597;28;20348;-71
2022/06/20 07:06:50;;;;;;;;;;;15.40;84.30;;;;;;5033285;28;19916;-72
2022/06/20 07:09:17;;;;;;;;;;;15.40;84.40;;;;;;5027629;28;19955;-71
2022/06/20 07:11:45;;;;;;;;;;;15.40;84.20;;;;;;5035276;28;19925;-71
2022/06/20 07:14:21;;;;;;;;;;;15.40;84.50;;;;;;5028753;28;19924;-71
2022/06/20 07:16:59;;;;;;;;;;;15.30;84.40;;;;;;5026834;28;19924;-73
2022/06/20 07:19:26;;;;;;;;;;;15.30;84.40;;;;;;5016695;28;19996;-73
2022/06/20 07:21:52;;;;;;;;;;;15.30;84.40;;;;;;5028053;28;19921;-73
2022/06/20 07:24:22;;;;;;;;;;;15.30;84.30;;;;;;5027603;28;19909;-73
2022/06/20 07:26:49;;;;;;;;;;;15.30;84.10;;;;;;5027952;28;19939;-73
2022/06/20 07:29:17;;;;;;;;;;;15.20;84.30;;;;;;5029094;28;20322;-72
2022/06/20 07:31:47;;;;;;;;;;;15.20;84.40;;;;;;5027712;28;19921;-73
2022/06/20 10:36:44;;;;;;;;;;;14.00;90.10;;;;;;5040720;28;20046;-79
2022/06/20 10:39:11;;;;;;;;;;;14.00;90.10;;;;;;5044151;28;20375;-72
2022/06/20 10:41:47;;;;;;;;;;;14.00;90.20;;;;;;5046989;28;19920;-73
2022/06/20 10:44:13;;;;;;;;;;;14.00;90.20;;;;;;5047109;28;19920;-73
2022/06/20 10:47:06;;;;;;;;;;;13.90;90.20;;;;;;5051301;28;19924;-76
2022/06/20 10:49:35;;;;;;;;;;;14.00;90.50;;;;;;5007645;28;19912;-76
2022/06/20 10:52:31;;;;;;;;;;;13.90;90.40;;;;;;5046829;28;19928;-75
2022/06/20 10:55:17;;;;;;;;;;;13.80;90.40;;;;;;5022818;28;19944;-74
2022/06/20 10:57:59;;;;;;;;;;;13.80;90.40;;;;;;5044349;28;20349;-74
2022/06/20 11:00:26;;;;;;;;;;;13.70;90.70;;;;;;5046343;28;19939;-75
2022/06/20 11:03:08;;;;;;;;;;;13.70;90.80;;;;;;5027060;28;19920;-73
2022/06/20 11:05:35;;;;;;;;;;;13.70;90.90;;;;;;5042853;28;19917;-69
2022/06/20 11:08:26;;;;;;;;;;;13.70;90.70;;;;;;5041749;28;19921;-71
2022/06/20 11:10:55;;;;;;;;;;;13.70;90.70;;;;;;5047850;28;19990;-70
2022/06/20 11:13:24;;;;;;;;;;;13.60;90.80;;;;;;5055845;28;19921;-71
2022/06/20 11:15:54;;;;;;;;;;;13.60;90.80;;;;;;5051311;28;19913;-72
2022/06/20 11:18:46;;;;;;;;;;;13.60;90.70;;;;;;5054617;28;20733;-70
2022/06/20 11:21:31;;;;;;;;;;;13.60;90.70;;;;;;5009924;28;19988;-71
2022/06/20 11:23:58;;;;;;;;;;;13.60;90.80;;;;;;5054410;28;20320;-73
2022/06/20 11:26:43;;;;;;;;;;;13.60;90.80;;;;;;5051235;28;20291;-73
2022/06/20 11:29:17;;;;;;;;;;;13.60;90.80;;;;;;5057815;28;19916;-73
2022/06/20 11:31:56;;;;;;;;;;;13.50;90.70;;;;;;5055366;28;19931;-71
2022/06/20 11:34:29;;;;;;;;;;;13.50;90.80;;;;;;5047851;28;19917;-73
2022/06/20 12:09:26;;;;;;;;;;;13.30;91.40;;;;;;5055121;28;20002;-74
2022/06/20 12:12:04;;;;;;;;;;;13.30;91.40;;;;;;5019364;28;20004;-74
2022/06/20 12:14:31;;;;;;;;;;;13.20;91.20;;;;;;5012366;28;20272;-73
2022/06/20 12:17:04;;;;;;;;;;;13.20;91.10;;;;;;4993417;28;19993;-71
2022/06/20 12:25:27;;;;;;;;;;;13.20;91.00;;;;;;5001350;28;19963;-73
2022/06/20 12:27:54;;;;;;;;;;;13.20;91.00;;;;;;5007589;28;20343;-73
2022/06/20 12:30:20;;;;;;;;;;;13.20;91.00;;;;;;5013163;28;19960;-73
2022/06/20 12:32:48;;;;;;;;;;;13.20;91.20;;;;;;4998220;28;19917;-73
2022/06/20 12:35:14;;;;;;;;;;;13.10;91.10;;;;;;5000230;28;19916;-73
2022/06/20 12:37:47;;;;;;;;;;;13.00;91.20;;;;;;5005277;28;20300;-73
2022/06/20 12:40:21;;;;;;;;;;;13.00;91.20;;;;;;5011591;28;19936;-73
2022/06/20 12:42:51;;;;;;;;;;;13.00;91.10;;;;;;4988769;28;19914;-73
2022/06/20 12:45:20;;;;;;;;;;;13.00;90.90;;;;;;5014016;28;19910;-73
2022/06/20 12:47:56;;;;;;;;;;;13.00;91.20;;;;;;5008906;28;19949;-73
2022/06/20 12:50:41;;;;;;;;;;;12.90;91.30;;;;;;5012384;28;19928;-73
2022/06/20 12:53:20;;;;;;;;;;;13.00;91.40;;;;;;5007684;28;20383;-73
2022/06/20 12:55:53;;;;;;;;;;;12.90;91.40;;;;;;4998310;28;20585;-72
2022/06/20 12:58:25;;;;;;;;;;;12.90;91.40;;;;;;5005609;28;19913;-73
2022/06/20 13:00:53;;;;;;;;;;;12.90;91.40;;;;;;4999879;28;20253;-74
2022/06/20 13:03:22;;;;;;;;;;;12.90;91.40;;;;;;4992199;28;19922;-72
2022/06/20 13:05:55;;;;;;;;;;;12.90;91.20;;;;;;5013895;28;19967;-74
2022/06/20 13:08:34;;;;;;;;;;;12.90;91.30;;;;;;5013860;28;19917;-73
2022/06/20 13:11:03;;;;;;;;;;;12.80;91.40;;;;;;5021392;28;19921;-73
2022/06/20 13:13:48;;;;;;;;;;;12.80;91.30;;;;;;5012563;28;20015;-72
2022/06/20 13:16:21;;;;;;;;;;;12.80;91.30;;;;;;5003006;28;19913;-72
2022/06/20 13:19:09;;;;;;;;;;;12.70;91.20;;;;;;4995628;28;19914;-72
2022/06/20 13:21:35;;;;;;;;;;;12.70;91.30;;;;;;5016859;28;20400;-73
2022/06/20 13:24:13;;;;;;;;;;;12.70;91.20;;;;;;5015131;28;20681;-72
2022/06/20 13:27:03;;;;;;;;;;;12.70;91.40;;;;;;4995098;28;19921;-73
2022/06/20 13:29:37;;;;;;;;;;;12.60;91.40;;;;;;4999169;28;19985;-73
2022/06/20 13:32:10;;;;;;;;;;;12.70;91.80;;;;;;4980911;28;20335;-73
2022/06/20 13:34:45;;;;;;;;;;;12.60;91.70;;;;;;5014272;28;19945;-73
2022/06/20 13:37:23;;;;;;;;;;;12.60;91.60;;;;;;4998339;28;19914;-73
2022/06/20 13:39:52;;;;;;;;;;;12.60;91.40;;;;;;4993349;28;19946;-73
2022/06/20 13:42:28;;;;;;;;;;;12.60;91.60;;;;;;4995806;28;19964;-73
2022/06/20 13:45:13;;;;;;;;;;;12.60;91.50;;;;;;5013969;28;19914;-73
2022/06/20 13:47:55;;;;;;;;;;;12.50;91.30;;;;;;5004777;28;20446;-73
2022/06/20 13:50:34;;;;;;;;;;;12.50;91.60;;;;;;5011777;28;19920;-73
2022/06/20 13:53:17;;;;;;;;;;;12.50;91.70;;;;;;4997010;28;19925;-73
2022/06/20 13:55:52;;;;;;;;;;;12.50;91.60;;;;;;5001939;28;19996;-73
2022/06/20 13:58:30;;;;;;;;;;;12.50;91.70;;;;;;5006130;28;19920;-73
2022/06/20 14:00:58;;;;;;;;;;;12.50;91.70;;;;;;5001898;28;19910;-73
2022/06/20 14:03:35;;;;;;;;;;;12.50;91.70;;;;;;5021490;28;19914;-73
2022/06/20 14:06:07;;;;;;;;;;;12.50;91.50;;;;;;5003446;28;20327;-73
2022/06/20 14:08:33;;;;;;;;;;;12.40;91.30;;;;;;4994557;28;19918;-73
2022/06/20 14:11:04;;;;;;;;;;;12.40;91.40;;;;;;4997805;28;20032;-73
2022/06/20 14:13:35;;;;;;;;;;;12.40;91.20;;;;;;5006048;28;20383;-73
2022/06/20 14:16:20;;;;;;;;;;;12.40;91.40;;;;;;4994715;28;19968;-73
2022/06/20 14:18:52;;;;;;;;;;;12.40;91.50;;;;;;4993462;28;19918;-73
2022/06/20 14:21:18;;;;;;;;;;;12.40;91.50;;;;;;4987341;28;19920;-73
2022/06/20 14:23:47;;;;;;;;;;;12.40;91.40;;;;;;4997755;28;19953;-73
2022/06/20 14:26:27;;;;;;;;;;;12.40;91.30;;;;;;4997414;28;19960;-73
2022/06/20 14:28:54;;;;;;;;;;;12.40;91.40;;;;;;4997015;28;19964;-73
2022/06/20 14:31:20;;;;;;;;;;;12.30;91.50;;;;;;4994481;28;19986;-73
2022/06/20 14:33:54;;;;;;;;;;;12.30;91.50;;;;;;4999837;28;19917;-73
2022/06/20 14:36:21;;;;;;;;;;;12.20;91.50;;;;;;5000752;28;19913;-73
2022/06/20 14:38:53;;;;;;;;;;;12.20;91.60;;;;;;4997969;28;19913;-73
2022/06/20 14:41:41;;;;;;;;;;;12.20;91.50;;;;;;4994732;28;19913;-73
2022/06/20 14:44:15;;;;;;;;;;;12.20;91.50;;;;;;5022616;28;20007;-73
2022/06/20 14:46:50;;;;;;;;;;;12.20;91.50;;;;;;5001476;28;19968;-73
2022/06/20 15:00:37;;;;;;;;;;;12.10;91.70;;;;;;5048988;28;21020;-73
2022/06/20 15:03:16;;;;;;;;;;;12.10;91.70;;;;;;5043365;28;19920;-73
2022/06/20 15:05:47;;;;;;;;;;;12.10;91.80;;;;;;5047481;28;20357;-73
2022/06/20 15:08:15;;;;;;;;;;;12.10;91.80;;;;;;5046742;28;19909;-73
2022/06/20 15:10:48;;;;;;;;;;;12.10;91.80;;;;;;5038654;28;19924;-73
2022/06/20 15:13:30;;;;;;;;;;;12.10;91.80;;;;;;5068796;28;19924;-73
2022/06/20 15:15:58;;;;;;;;;;;12.10;91.70;;;;;;5035311;28;20390;-73
2022/06/20 15:18:34;;;;;;;;;;;12.10;91.70;;;;;;5033738;28;19908;-73
2022/06/20 15:21:27;;;;;;;;;;;12.10;91.60;;;;;;5035413;28;19913;-73
2022/06/20 15:24:00;;;;;;;;;;;12.10;91.60;;;;;;5050435;28;19924;-73
2022/06/20 15:26:28;;;;;;;;;;;12.00;91.60;;;;;;5042972;28;20051;-73
2022/06/20 15:28:59;;;;;;;;;;;12.00;91.60;;;;;;5031514;28;19999;-73
2022/06/20 15:31:28;;;;;;;;;;;12.00;91.50;;;;;;5035126;28;19912;-73
2022/06/20 15:33:56;;;;;;;;;;;12.00;91.60;;;;;;5057426;28;19925;-73
2022/06/20 15:36:40;;;;;;;;;;;12.00;91.50;;;;;;5055962;28;19919;-73
2022/06/20 15:39:26;;;;;;;;;;;12.00;91.30;;;;;;5037912;28;19920;-73
2022/06/20 15:44:48;;;;;;;;;;;11.90;91.40;;;;;;5051486;28;20286;-74
2022/06/20 15:47:22;;;;;;;;;;;11.90;91.40;;;;;;5041961;28;20743;-73
2022/06/20 15:49:58;;;;;;;;;;;11.80;91.40;;;;;;5035400;28;19924;-73
2022/06/20 15:52:25;;;;;;;;;;;11.80;91.70;;;;;;5060322;28;19920;-73
2022/06/20 15:54:51;;;;;;;;;;;11.80;91.60;;;;;;5062259;28;20386;-73
2022/06/20 15:57:29;;;;;;;;;;;11.80;91.80;;;;;;5058759;28;19909;-73
2022/06/20 16:00:15;;;;;;;;;;;11.80;91.60;;;;;;5058027;28;21655;-73
2022/06/20 16:02:41;;;;;;;;;;;11.80;91.60;;;;;;5061917;28;19924;-73
2022/06/20 16:05:17;;;;;;;;;;;11.80;91.60;;;;;;5065999;28;19908;-74
2022/06/20 16:07:50;;;;;;;;;;;11.80;91.70;;;;;;5049491;28;20390;-73
2022/06/20 16:10:22;;;;;;;;;;;11.70;91.80;;;;;;5044563;28;20378;-73
2022/06/20 16:12:51;;;;;;;;;;;11.80;91.80;;;;;;5066517;28;20374;-73
2022/06/20 16:15:26;;;;;;;;;;;11.80;91.90;;;;;;5059021;28;20270;-74
2022/06/20 16:17:53;;;;;;;;;;;11.70;91.70;;;;;;5046580;28;19920;-73
2022/06/20 16:20:26;;;;;;;;;;;11.70;91.80;;;;;;5035975;28;19919;-73
2022/06/20 16:22:53;;;;;;;;;;;11.70;91.80;;;;;;5055836;28;19935;-73
2022/06/20 16:25:21;;;;;;;;;;;11.70;91.60;;;;;;5056676;28;19909;-73
2022/06/20 16:27:58;;;;;;;;;;;11.70;91.80;;;;;;5036586;28;19909;-73
2022/06/20 16:54:55;;;;;;;;;;;11.40;91.60;;;;;;5030924;28;20033;-73
2022/06/20 16:57:25;;;;;;;;;;;11.40;91.60;;;;;;5015941;28;19924;-73
2022/06/20 16:59:51;;;;;;;;;;;11.40;91.80;;;;;;5016342;28;19913;-73
2022/06/20 17:02:19;;;;;;;;;;;11.40;91.90;;;;;;5045566;28;19913;-73
2022/06/20 17:05:08;;;;;;;;;;;11.40;91.80;;;;;;5016372;28;19917;-73
2022/06/20 17:07:38;;;;;;;;;;;11.30;91.80;;;;;;5015145;28;19909;-73
2022/06/20 17:10:22;;;;;;;;;;;11.30;91.70;;;;;;5033340;28;19940;-73
2022/06/20 17:13:05;;;;;;;;;;;11.30;91.70;;;;;;5033372;28;20611;-73
2022/06/20 17:15:35;;;;;;;;;;;11.30;91.90;;;;;;5015158;28;20047;-73
2022/06/20 17:18:11;;;;;;;;;;;11.40;91.90;;;;;;5021106;28;19913;-73
2022/06/20 17:21:00;;;;;;;;;;;11.30;91.60;;;;;;5015883;28;19972;-73
2022/06/20 17:23:27;;;;;;;;;;;11.30;91.60;;;;;;5016555;28;19917;-73
2022/06/20 17:25:56;;;;;;;;;;;11.30;91.70;;;;;;5030084;28;19914;-73
2022/06/20 17:28:27;;;;;;;;;;;11.30;91.80;;;;;;5031967;28;19913;-73
2022/06/20 17:31:05;;;;;;;;;;;11.30;91.70;;;;;;5032202;28;19909;-73
2022/06/20 17:33:37;;;;;;;;;;;11.30;91.60;;;;;;5021478;28;20303;-73
2022/06/20 17:36:22;;;;;;;;;;;11.20;91.70;;;;;;5015923;28;20000;-73
2022/06/20 17:38:48;;;;;;;;;;;11.20;91.90;;;;;;5032522;28;20344;-74
2022/06/20 17:41:24;;;;;;;;;;;11.20;91.80;;;;;;5015332;28;20412;-73
2022/06/20 17:43:58;;;;;;;;;;;11.20;91.50;;;;;;5033352;28;19909;-73
2022/06/20 17:46:27;;;;;;;;;;;11.20;91.70;;;;;;5015285;28;20311;-73
2022/06/20 17:49:09;;;;;;;;;;;11.20;91.70;;;;;;5031941;28;19936;-73
2022/06/20 17:51:51;;;;;;;;;;;11.10;91.60;;;;;;5010620;28;19913;-73
2022/06/20 17:54:22;;;;;;;;;;;11.10;91.50;;;;;;5054079;28;20019;-73
2022/06/20 17:56:49;;;;;;;;;;;11.10;91.70;;;;;;5055642;28;20342;-73
2022/06/20 17:59:19;;;;;;;;;;;11.10;91.60;;;;;;5054638;28;19967;-73
2022/06/20 18:01:48;;;;;;;;;;;11.10;91.80;;;;;;5053616;28;19913;-73
2022/06/20 18:04:17;;;;;;;;;;;11.10;91.80;;;;;;5052170;28;19920;-73
2022/06/20 18:06:44;;;;;;;;;;;11.00;91.80;;;;;;5035594;28;19913;-73
2022/06/20 18:09:30;;;;;;;;;;;11.00;91.70;;;;;;5036729;28;20363;-72
2022/06/20 18:12:11;;;;;;;;;;;11.00;91.70;;;;;;5055289;28;20333;-73
2022/06/20 18:14:40;;;;;;;;;;;11.00;91.80;;;;;;5049495;28;19912;-73
2022/06/20 18:17:12;;;;;;;;;;;11.00;91.70;;;;;;5053008;28;19917;-72
2022/06/20 18:19:40;;;;;;;;;;;10.90;91.70;;;;;;5033794;28;19951;-73
